Main page
METAR-TAF:

METAR-TAF

Airports :

Black River Falls Area Airport

Black River Falls, Wisconsin, United States

latitude: 44-15-03N, longitude: 090-51-19W, elevation: 836 ft

Current weather observation

The report was made 28 minutes ago, at 21:55 UTC
Wind 7 mph from the South/Southeast
Temperature 57°F
Humidity 38%
Pressure 30.00 in. Hg
Visibility: 10 miles
Clear sky

METAR: KBCK 012155Z AUTO 16006KT 10SM CLR 14/00 A3000 RMK AO2 T01400003

Time: 17:23 (22:23 UTC)


TAF: missing

Weather observations and forecasts of more than 4000 airports (METAR and TAF reports).

The available stations are represented by yellow and red dots on the map.

Hover mouse over dot to see the name of the station.

Then click to see weather observations and forecasts.

To change the map : click on the green buttons with a black cross to zoom in, on the green button with a dash to zoom out, or on the green arrows for adjacent maps.


METAR-TAF: